sensor_id;sensor_type;location;lat;lon;timestamp;temperature;humidity
21090;DHT22;10703;51.020;6.128;2023-08-24T00:01:45;16.70;99.90
21090;DHT22;10703;51.020;6.128;2023-08-24T00:04:12;16.70;99.90
21090;DHT22;10703;51.020;6.128;2023-08-24T00:06:38;16.50;99.90
21090;DHT22;10703;51.020;6.128;2023-08-24T00:09:05;16.50;99.90
21090;DHT22;10703;51.020;6.128;2023-08-24T00:11:32;16.50;99.90
21090;DHT22;10703;51.020;6.128;2023-08-24T00:13:58;16.40;99.90
21090;DHT22;10703;51.020;6.128;2023-08-24T00:16:25;16.40;99.90
21090;DHT22;10703;51.020;6.128;2023-08-24T00:18:52;16.40;99.90
21090;DHT22;10703;51.020;6.128;2023-08-24T00:21:18;16.50;99.90
21090;DHT22;10703;51.020;6.128;2023-08-24T00:23:50;16.60;99.90
21090;DHT22;10703;51.020;6.128;2023-08-24T00:26:17;16.60;99.90
21090;DHT22;10703;51.020;6.128;2023-08-24T00:28:44;16.70;99.90
21090;DHT22;10703;51.020;6.128;2023-08-24T00:31:10;16.70;99.90
21090;DHT22;10703;51.020;6.128;2023-08-24T00:33:38;16.70;99.90
21090;DHT22;10703;51.020;6.128;2023-08-24T00:36:05;16.70;99.90
21090;DHT22;10703;51.020;6.128;2023-08-24T00:38:32;16.90;99.90
21090;DHT22;10703;51.020;6.128;2023-08-24T00:40:59;17.00;99.90
21090;DHT22;10703;51.020;6.128;2023-08-24T00:43:26;17.10;99.90
21090;DHT22;10703;51.020;6.128;2023-08-24T00:45:59;17.00;99.90
21090;DHT22;10703;51.020;6.128;2023-08-24T00:48:27;16.90;99.90
21090;DHT22;10703;51.020;6.128;2023-08-24T00:51:00;17.00;99.90
21090;DHT22;10703;51.020;6.128;2023-08-24T00:53:29;17.00;99.90
21090;DHT22;10703;51.020;6.128;2023-08-24T00:55:56;16.90;99.90
21090;DHT22;10703;51.020;6.128;2023-08-24T00:58:24;17.00;99.90
21090;DHT22;10703;51.020;6.128;2023-08-24T01:00:54;17.00;99.90
21090;DHT22;10703;51.020;6.128;2023-08-24T01:03:22;17.00;99.90
21090;DHT22;10703;51.020;6.128;2023-08-24T01:05:49;16.90;99.90
21090;DHT22;10703;51.020;6.128;2023-08-24T01:08:16;16.90;99.90
21090;DHT22;10703;51.020;6.128;2023-08-24T01:13:57;17.00;99.90
21090;DHT22;10703;51.020;6.128;2023-08-24T01:16:29;16.90;99.90
21090;DHT22;10703;51.020;6.128;2023-08-24T01:18:57;16.90;99.90
21090;DHT22;10703;51.020;6.128;2023-08-24T01:21:26;16.80;99.90
21090;DHT22;10703;51.020;6.128;2023-08-24T01:24:14;16.70;99.90
21090;DHT22;10703;51.020;6.128;2023-08-24T01:26:44;16.60;99.90
21090;DHT22;10703;51.020;6.128;2023-08-24T01:29:10;16.60;99.90
21090;DHT22;10703;51.020;6.128;2023-08-24T01:31:37;16.60;99.90
21090;DHT22;10703;51.020;6.128;2023-08-24T01:34:04;16.70;99.90
21090;DHT22;10703;51.020;6.128;2023-08-24T01:36:31;16.50;99.90
21090;DHT22;10703;51.020;6.128;2023-08-24T01:39:14;16.70;99.90
21090;DHT22;10703;51.020;6.128;2023-08-24T01:41:49;16.60;99.90
21090;DHT22;10703;51.020;6.128;2023-08-24T01:44:18;16.70;99.90
21090;DHT22;10703;51.020;6.128;2023-08-24T01:46:48;16.70;99.90
21090;DHT22;10703;51.020;6.128;2023-08-24T01:49:17;16.70;99.90
21090;DHT22;10703;51.020;6.128;2023-08-24T01:51:45;16.80;99.90
21090;DHT22;10703;51.020;6.128;2023-08-24T01:54:13;16.80;99.90
21090;DHT22;10703;51.020;6.128;2023-08-24T01:56:39;16.80;99.90
21090;DHT22;10703;51.020;6.128;2023-08-24T01:59:06;16.80;99.90
21090;DHT22;10703;51.020;6.128;2023-08-24T02:01:33;16.80;99.90
21090;DHT22;10703;51.020;6.128;2023-08-24T02:03:59;16.80;99.90
21090;DHT22;10703;51.020;6.128;2023-08-24T02:06:26;16.70;99.90
21090;DHT22;10703;51.020;6.128;2023-08-24T02:08:53;16.80;99.90
21090;DHT22;10703;51.020;6.128;2023-08-24T02:11:20;16.80;99.90
21090;DHT22;10703;51.020;6.128;2023-08-24T02:13:47;17.10;99.90
21090;DHT22;10703;51.020;6.128;2023-08-24T02:16:13;16.80;99.90
21090;DHT22;10703;51.020;6.128;2023-08-24T02:18:40;16.80;99.90
21090;DHT22;10703;51.020;6.128;2023-08-24T02:21:10;16.80;99.90
21090;DHT22;10703;51.020;6.128;2023-08-24T02:23:39;16.70;99.90
21090;DHT22;10703;51.020;6.128;2023-08-24T02:26:06;16.70;99.90
21090;DHT22;10703;51.020;6.128;2023-08-24T02:28:34;16.80;99.90
21090;DHT22;10703;51.020;6.128;2023-08-24T02:31:01;16.90;99.90
21090;DHT22;10703;51.020;6.128;2023-08-24T02:33:29;17.00;99.90
21090;DHT22;10703;51.020;6.128;2023-08-24T02:35:56;17.10;99.90
21090;DHT22;10703;51.020;6.128;2023-08-24T02:38:24;17.10;99.90
21090;DHT22;10703;51.020;6.128;2023-08-24T02:41:03;17.20;99.90
21090;DHT22;10703;51.020;6.128;2023-08-24T02:43:29;17.20;99.90
21090;DHT22;10703;51.020;6.128;2023-08-24T02:46:04;17.30;99.90
21090;DHT22;10703;51.020;6.128;2023-08-24T02:48:32;17.20;99.90
21090;DHT22;10703;51.020;6.128;2023-08-24T02:50:59;17.20;99.90
21090;DHT22;10703;51.020;6.128;2023-08-24T02:53:27;17.20;99.90
21090;DHT22;10703;51.020;6.128;2023-08-24T02:55:54;17.30;99.90
21090;DHT22;10703;51.020;6.128;2023-08-24T02:58:21;17.40;99.90
21090;DHT22;10703;51.020;6.128;2023-08-24T03:00:47;17.50;99.90
21090;DHT22;10703;51.020;6.128;2023-08-24T03:03:14;17.60;99.90
21090;DHT22;10703;51.020;6.128;2023-08-24T03:05:58;17.70;99.90
21090;DHT22;10703;51.020;6.128;2023-08-24T03:08:25;17.80;99.90
21090;DHT22;10703;51.020;6.128;2023-08-24T03:10:52;17.80;99.90
21090;DHT22;10703;51.020;6.128;2023-08-24T03:13:19;17.70;99.90
21090;DHT22;10703;51.020;6.128;2023-08-24T03:15:46;17.70;99.90
21090;DHT22;10703;51.020;6.128;2023-08-24T03:18:13;17.50;99.90
21090;DHT22;10703;51.020;6.128;2023-08-24T03:20:40;17.50;99.90
21090;DHT22;10703;51.020;6.128;2023-08-24T03:23:07;17.50;99.90
21090;DHT22;10703;51.020;6.128;2023-08-24T03:25:38;17.40;99.90
21090;DHT22;10703;51.020;6.128;2023-08-24T03:28:07;17.40;99.90
21090;DHT22;10703;51.020;6.128;2023-08-24T03:30:39;17.40;99.90
21090;DHT22;10703;51.020;6.128;2023-08-24T03:33:06;17.30;99.90
21090;DHT22;10703;51.020;6.128;2023-08-24T03:35:33;17.20;99.90
21090;DHT22;10703;51.020;6.128;2023-08-24T03:38:00;17.10;99.90
21090;DHT22;10703;51.020;6.128;2023-08-24T03:40:27;17.10;99.90
21090;DHT22;10703;51.020;6.128;2023-08-24T03:42:53;17.20;99.90
21090;DHT22;10703;51.020;6.128;2023-08-24T03:45:21;17.20;99.90
21090;DHT22;10703;51.020;6.128;2023-08-24T03:47:48;17.20;99.90
21090;DHT22;10703;51.020;6.128;2023-08-24T03:50:16;17.20;99.90
21090;DHT22;10703;51.020;6.128;2023-08-24T03:52:43;17.10;99.90
21090;DHT22;10703;51.020;6.128;2023-08-24T03:55:09;17.10;99.90
21090;DHT22;10703;51.020;6.128;2023-08-24T03:57:36;17.00;99.90
21090;DHT22;10703;51.020;6.128;2023-08-24T04:00:05;17.10;99.90
21090;DHT22;10703;51.020;6.128;2023-08-24T04:02:38;17.10;99.90
21090;DHT22;10703;51.020;6.128;2023-08-24T04:05:05;17.10;99.90
21090;DHT22;10703;51.020;6.128;2023-08-24T04:07:32;17.10;99.90
21090;DHT22;10703;51.020;6.128;2023-08-24T04:10:03;17.00;99.90
21090;DHT22;10703;51.020;6.128;2023-08-24T04:12:33;17.10;99.90
21090;DHT22;10703;51.020;6.128;2023-08-24T04:14:59;17.10;99.90
21090;DHT22;10703;51.020;6.128;2023-08-24T04:17:26;17.10;99.90
21090;DHT22;10703;51.020;6.128;2023-08-24T04:19:53;17.10;99.90
21090;DHT22;10703;51.020;6.128;2023-08-24T04:22:19;17.20;99.90
21090;DHT22;10703;51.020;6.128;2023-08-24T04:24:46;17.00;99.90
21090;DHT22;10703;51.020;6.128;2023-08-24T04:27:12;17.00;99.90
21090;DHT22;10703;51.020;6.128;2023-08-24T04:29:41;17.00;99.90
21090;DHT22;10703;51.020;6.128;2023-08-24T04:32:08;17.00;99.90
21090;DHT22;10703;51.020;6.128;2023-08-24T04:34:34;17.00;99.90
21090;DHT22;10703;51.020;6.128;2023-08-24T04:37:01;17.00;99.90
21090;DHT22;10703;51.020;6.128;2023-08-24T04:39:29;17.10;99.90
21090;DHT22;10703;51.020;6.128;2023-08-24T04:41:56;17.10;99.90
21090;DHT22;10703;51.020;6.128;2023-08-24T04:44:23;17.10;99.90
21090;DHT22;10703;51.020;6.128;2023-08-24T04:46:51;17.30;99.90
21090;DHT22;10703;51.020;6.128;2023-08-24T04:49:18;17.40;99.90
21090;DHT22;10703;51.020;6.128;2023-08-24T04:51:44;17.40;99.90
21090;DHT22;10703;51.020;6.128;2023-08-24T04:54:11;17.30;99.90
21090;DHT22;10703;51.020;6.128;2023-08-24T04:56:38;17.30;99.90
21090;DHT22;10703;51.020;6.128;2023-08-24T04:59:05;17.40;99.90
21090;DHT22;10703;51.020;6.128;2023-08-24T05:01:31;17.50;99.90
21090;DHT22;10703;51.020;6.128;2023-08-24T05:03:58;17.60;99.90
21090;DHT22;10703;51.020;6.128;2023-08-24T05:06:25;17.50;99.90
21090;DHT22;10703;51.020;6.128;2023-08-24T05:08:51;17.60;99.90
21090;DHT22;10703;51.020;6.128;2023-08-24T05:11:21;17.60;99.90
21090;DHT22;10703;51.020;6.128;2023-08-24T05:13:48;17.60;99.90
21090;DHT22;10703;51.020;6.128;2023-08-24T05:16:15;17.60;99.90
21090;DHT22;10703;51.020;6.128;2023-08-24T05:18:42;17.60;99.90
21090;DHT22;10703;51.020;6.128;2023-08-24T05:21:08;17.70;99.90
21090;DHT22;10703;51.020;6.128;2023-08-24T05:23:35;17.70;99.90
21090;DHT22;10703;51.020;6.128;2023-08-24T05:26:02;17.70;99.90
21090;DHT22;10703;51.020;6.128;2023-08-24T05:28:31;17.70;99.90
21090;DHT22;10703;51.020;6.128;2023-08-24T05:30:58;17.70;99.90
21090;DHT22;10703;51.020;6.128;2023-08-24T05:33:26;17.80;99.90
21090;DHT22;10703;51.020;6.128;2023-08-24T05:35:53;17.80;99.90
21090;DHT22;10703;51.020;6.128;2023-08-24T05:38:19;17.90;99.90
21090;DHT22;10703;51.020;6.128;2023-08-24T05:40:47;17.90;99.90
21090;DHT22;10703;51.020;6.128;2023-08-24T05:43:14;18.00;99.90
21090;DHT22;10703;51.020;6.128;2023-08-24T05:45:41;18.00;99.90
21090;DHT22;10703;51.020;6.128;2023-08-24T05:48:11;18.00;99.90
21090;DHT22;10703;51.020;6.128;2023-08-24T05:50:43;18.10;99.90
21090;DHT22;10703;51.020;6.128;2023-08-24T05:53:10;18.00;99.90
21090;DHT22;10703;51.020;6.128;2023-08-24T05:55:37;18.00;99.90
21090;DHT22;10703;51.020;6.128;2023-08-24T05:58:04;17.90;99.90
21090;DHT22;10703;51.020;6.128;2023-08-24T06:00:31;17.90;99.90
21090;DHT22;10703;51.020;6.128;2023-08-24T06:02:58;18.00;99.90
21090;DHT22;10703;51.020;6.128;2023-08-24T06:05:24;18.20;99.90
21090;DHT22;10703;51.020;6.128;2023-08-24T06:07:51;18.20;99.90
21090;DHT22;10703;51.020;6.128;2023-08-24T06:10:18;18.20;99.90
21090;DHT22;10703;51.020;6.128;2023-08-24T06:12:45;18.40;99.90
21090;DHT22;10703;51.020;6.128;2023-08-24T06:15:11;18.60;99.90
21090;DHT22;10703;51.020;6.128;2023-08-24T06:17:39;18.60;99.90
21090;DHT22;10703;51.020;6.128;2023-08-24T06:20:10;18.80;99.90
21090;DHT22;10703;51.020;6.128;2023-08-24T06:22:37;18.90;99.90
21090;DHT22;10703;51.020;6.128;2023-08-24T06:25:04;19.10;99.90
21090;DHT22;10703;51.020;6.128;2023-08-24T06:27:31;19.20;99.90
21090;DHT22;10703;51.020;6.128;2023-08-24T06:29:58;19.40;99.90
21090;DHT22;10703;51.020;6.128;2023-08-24T06:32:25;19.50;99.90
21090;DHT22;10703;51.020;6.128;2023-08-24T06:34:51;19.50;99.90
21090;DHT22;10703;51.020;6.128;2023-08-24T06:37:18;19.50;99.90
21090;DHT22;10703;51.020;6.128;2023-08-24T06:39:45;19.70;99.90
21090;DHT22;10703;51.020;6.128;2023-08-24T06:42:11;19.70;99.90
21090;DHT22;10703;51.020;6.128;2023-08-24T06:44:38;19.90;99.90
21090;DHT22;10703;51.020;6.128;2023-08-24T06:47:05;20.10;99.90
21090;DHT22;10703;51.020;6.128;2023-08-24T06:49:32;20.30;99.90
21090;DHT22;10703;51.020;6.128;2023-08-24T06:51:58;20.30;99.90
21090;DHT22;10703;51.020;6.128;2023-08-24T06:54:25;20.50;99.90
21090;DHT22;10703;51.020;6.128;2023-08-24T06:56:54;20.60;99.90
21090;DHT22;10703;51.020;6.128;2023-08-24T06:59:21;20.70;99.90
21090;DHT22;10703;51.020;6.128;2023-08-24T07:01:47;20.90;99.90
21090;DHT22;10703;51.020;6.128;2023-08-24T07:04:14;21.10;99.90
21090;DHT22;10703;51.020;6.128;2023-08-24T07:06:41;21.50;99.90
21090;DHT22;10703;51.020;6.128;2023-08-24T07:09:09;22.20;99.90
21090;DHT22;10703;51.020;6.128;2023-08-24T07:11:36;22.80;99.90
21090;DHT22;10703;51.020;6.128;2023-08-24T07:14:03;23.40;99.90
21090;DHT22;10703;51.020;6.128;2023-08-24T07:16:29;24.20;99.90
21090;DHT22;10703;51.020;6.128;2023-08-24T07:18:56;24.10;99.90
21090;DHT22;10703;51.020;6.128;2023-08-24T07:21:23;24.70;99.90
21090;DHT22;10703;51.020;6.128;2023-08-24T07:23:49;25.10;99.90
21090;DHT22;10703;51.020;6.128;2023-08-24T07:26:16;25.50;99.90
21090;DHT22;10703;51.020;6.128;2023-08-24T07:28:43;25.50;99.90
21090;DHT22;10703;51.020;6.128;2023-08-24T07:31:10;26.30;99.90
21090;DHT22;10703;51.020;6.128;2023-08-24T07:33:38;26.80;99.90
21090;DHT22;10703;51.020;6.128;2023-08-24T07:36:07;27.20;99.90
21090;DHT22;10703;51.020;6.128;2023-08-24T07:38:34;27.80;99.90
21090;DHT22;10703;51.020;6.128;2023-08-24T07:41:00;28.10;99.90
21090;DHT22;10703;51.020;6.128;2023-08-24T07:43:27;28.30;99.90
21090;DHT22;10703;51.020;6.128;2023-08-24T07:45:54;29.00;99.90
21090;DHT22;10703;51.020;6.128;2023-08-24T07:48:22;28.60;99.90
21090;DHT22;10703;51.020;6.128;2023-08-24T07:50:49;28.30;99.90
21090;DHT22;10703;51.020;6.128;2023-08-24T07:53:16;27.60;99.90
21090;DHT22;10703;51.020;6.128;2023-08-24T07:55:43;27.50;99.90
21090;DHT22;10703;51.020;6.128;2023-08-24T07:58:09;27.40;99.90
21090;DHT22;10703;51.020;6.128;2023-08-24T08:00:36;27.10;99.90
21090;DHT22;10703;51.020;6.128;2023-08-24T08:03:03;27.00;99.90
21090;DHT22;10703;51.020;6.128;2023-08-24T08:05:30;26.90;99.90
21090;DHT22;10703;51.020;6.128;2023-08-24T08:07:57;27.00;99.90
21090;DHT22;10703;51.020;6.128;2023-08-24T08:10:23;26.90;99.90
21090;DHT22;10703;51.020;6.128;2023-08-24T08:12:50;27.20;99.90
21090;DHT22;10703;51.020;6.128;2023-08-24T08:15:16;27.30;99.90
21090;DHT22;10703;51.020;6.128;2023-08-24T08:17:43;27.20;99.90
21090;DHT22;10703;51.020;6.128;2023-08-24T08:20:10;27.40;99.90
21090;DHT22;10703;51.020;6.128;2023-08-24T08:22:38;27.50;99.90
21090;DHT22;10703;51.020;6.128;2023-08-24T08:25:06;28.80;99.90
21090;DHT22;10703;51.020;6.128;2023-08-24T08:27:33;28.70;99.90
21090;DHT22;10703;51.020;6.128;2023-08-24T08:30:00;28.80;99.90
21090;DHT22;10703;51.020;6.128;2023-08-24T08:32:26;28.70;99.90
21090;DHT22;10703;51.020;6.128;2023-08-24T08:34:54;28.60;99.90
21090;DHT22;10703;51.020;6.128;2023-08-24T08:37:23;28.50;99.90
21090;DHT22;10703;51.020;6.128;2023-08-24T08:39:50;28.60;99.90
21090;DHT22;10703;51.020;6.128;2023-08-24T08:42:16;28.80;99.90
21090;DHT22;10703;51.020;6.128;2023-08-24T08:44:45;29.10;99.90
21090;DHT22;10703;51.020;6.128;2023-08-24T08:47:13;28.80;99.90
21090;DHT22;10703;51.020;6.128;2023-08-24T08:49:42;28.90;99.90
21090;DHT22;10703;51.020;6.128;2023-08-24T08:52:09;29.10;99.90
21090;DHT22;10703;51.020;6.128;2023-08-24T08:54:36;28.80;99.90
21090;DHT22;10703;51.020;6.128;2023-08-24T08:57:03;29.50;99.90
21090;DHT22;10703;51.020;6.128;2023-08-24T08:59:30;29.90;99.90
21090;DHT22;10703;51.020;6.128;2023-08-24T09:01:57;29.50;99.90
21090;DHT22;10703;51.020;6.128;2023-08-24T09:04:24;29.70;99.90
21090;DHT22;10703;51.020;6.128;2023-08-24T09:06:51;30.10;99.90
21090;DHT22;10703;51.020;6.128;2023-08-24T09:09:18;29.60;99.90
21090;DHT22;10703;51.020;6.128;2023-08-24T09:11:45;29.90;99.90
21090;DHT22;10703;51.020;6.128;2023-08-24T09:14:14;29.70;99.90
21090;DHT22;10703;51.020;6.128;2023-08-24T09:16:41;30.30;99.90
21090;DHT22;10703;51.020;6.128;2023-08-24T09:19:11;30.70;99.90
21090;DHT22;10703;51.020;6.128;2023-08-24T09:21:39;30.10;99.90
21090;DHT22;10703;51.020;6.128;2023-08-24T09:24:06;29.90;99.90
21090;DHT22;10703;51.020;6.128;2023-08-24T09:26:35;30.40;99.90
21090;DHT22;10703;51.020;6.128;2023-08-24T09:29:14;31.10;99.90
21090;DHT22;10703;51.020;6.128;2023-08-24T09:31:42;31.30;99.90
21090;DHT22;10703;51.020;6.128;2023-08-24T09:34:12;30.90;99.90
21090;DHT22;10703;51.020;6.128;2023-08-24T09:36:39;31.10;99.90
21090;DHT22;10703;51.020;6.128;2023-08-24T09:39:06;31.60;99.90
21090;DHT22;10703;51.020;6.128;2023-08-24T09:41:44;31.70;99.90
21090;DHT22;10703;51.020;6.128;2023-08-24T09:44:11;31.50;99.90
21090;DHT22;10703;51.020;6.128;2023-08-24T09:46:39;31.60;99.90
21090;DHT22;10703;51.020;6.128;2023-08-24T09:49:08;31.90;99.90
21090;DHT22;10703;51.020;6.128;2023-08-24T09:51:36;31.90;99.90
21090;DHT22;10703;51.020;6.128;2023-08-24T09:54:08;32.70;99.90
21090;DHT22;10703;51.020;6.128;2023-08-24T09:56:39;32.20;99.90
21090;DHT22;10703;51.020;6.128;2023-08-24T09:59:17;31.80;99.90
21090;DHT22;10703;51.020;6.128;2023-08-24T10:01:46;32.20;99.90
21090;DHT22;10703;51.020;6.128;2023-08-24T10:04:25;32.30;99.90
21090;DHT22;10703;51.020;6.128;2023-08-24T10:07:10;32.50;99.90
21090;DHT22;10703;51.020;6.128;2023-08-24T10:09:50;32.20;99.40
21090;DHT22;10703;51.020;6.128;2023-08-24T10:12:21;31.60;99.30
21090;DHT22;10703;51.020;6.128;2023-08-24T10:15:02;31.80;99.90
21090;DHT22;10703;51.020;6.128;2023-08-24T10:17:31;31.80;99.50
21090;DHT22;10703;51.020;6.128;2023-08-24T10:20:00;31.80;99.90
21090;DHT22;10703;51.020;6.128;2023-08-24T10:22:32;31.40;99.90
21090;DHT22;10703;51.020;6.128;2023-08-24T10:25:00;31.60;99.90
21090;DHT22;10703;51.020;6.128;2023-08-24T10:27:28;31.30;99.90
21090;DHT22;10703;51.020;6.128;2023-08-24T10:29:56;31.40;99.90
21090;DHT22;10703;51.020;6.128;2023-08-24T10:32:26;31.70;99.90
21090;DHT22;10703;51.020;6.128;2023-08-24T10:34:54;31.40;99.70
21090;DHT22;10703;51.020;6.128;2023-08-24T10:37:27;31.60;99.30
21090;DHT22;10703;51.020;6.128;2023-08-24T10:39:54;31.80;99.10
21090;DHT22;10703;51.020;6.128;2023-08-24T10:42:21;31.40;99.90
21090;DHT22;10703;51.020;6.128;2023-08-24T10:44:48;31.20;99.90
21090;DHT22;10703;51.020;6.128;2023-08-24T10:47:23;31.00;99.90
21090;DHT22;10703;51.020;6.128;2023-08-24T10:52:23;30.70;99.90
21090;DHT22;10703;51.020;6.128;2023-08-24T10:54:52;30.40;99.90
21090;DHT22;10703;51.020;6.128;2023-08-24T10:57:20;29.60;99.90
21090;DHT22;10703;51.020;6.128;2023-08-24T11:00:20;29.10;99.90
21090;DHT22;10703;51.020;6.128;2023-08-24T11:02:50;28.70;99.90
21090;DHT22;10703;51.020;6.128;2023-08-24T11:05:29;28.50;99.90
21090;DHT22;10703;51.020;6.128;2023-08-24T11:08:01;28.20;99.90
21090;DHT22;10703;51.020;6.128;2023-08-24T11:10:33;27.90;99.90
21090;DHT22;10703;51.020;6.128;2023-08-24T11:13:18;27.80;99.90
21090;DHT22;10703;51.020;6.128;2023-08-24T11:15:51;27.60;99.90
21090;DHT22;10703;51.020;6.128;2023-08-24T11:18:25;27.50;99.90
21090;DHT22;10703;51.020;6.128;2023-08-24T11:20:59;27.20;99.90
21090;DHT22;10703;51.020;6.128;2023-08-24T11:23:26;27.00;99.90
21090;DHT22;10703;51.020;6.128;2023-08-24T11:25:54;26.80;99.90
21090;DHT22;10703;51.020;6.128;2023-08-24T11:28:27;26.50;99.90
21090;DHT22;10703;51.020;6.128;2023-08-24T11:30:55;26.10;99.90
21090;DHT22;10703;51.020;6.128;2023-08-24T11:33:32;25.80;99.90
21090;DHT22;10703;51.020;6.128;2023-08-24T11:36:00;25.20;99.90
21090;DHT22;10703;51.020;6.128;2023-08-24T11:38:40;24.60;99.90
21090;DHT22;10703;51.020;6.128;2023-08-24T11:41:14;24.20;99.90
21090;DHT22;10703;51.020;6.128;2023-08-24T11:43:45;23.60;99.90
21090;DHT22;10703;51.020;6.128;2023-08-24T11:46:20;23.10;99.90
21090;DHT22;10703;51.020;6.128;2023-08-24T11:48:46;22.80;99.90
21090;DHT22;10703;51.020;6.128;2023-08-24T11:51:13;22.50;99.90
21090;DHT22;10703;51.020;6.128;2023-08-24T11:53:44;22.40;99.90
21090;DHT22;10703;51.020;6.128;2023-08-24T11:56:12;22.30;99.90
21090;DHT22;10703;51.020;6.128;2023-08-24T11:58:39;22.30;99.90
21090;DHT22;10703;51.020;6.128;2023-08-24T12:01:08;22.20;99.90
21090;DHT22;10703;51.020;6.128;2023-08-24T12:03:36;22.30;99.90
21090;DHT22;10703;51.020;6.128;2023-08-24T12:06:12;22.40;99.90
21090;DHT22;10703;51.020;6.128;2023-08-24T12:08:45;22.40;99.90
21090;DHT22;10703;51.020;6.128;2023-08-24T12:11:19;22.60;99.90
21090;DHT22;10703;51.020;6.128;2023-08-24T12:13:49;22.90;99.90
21090;DHT22;10703;51.020;6.128;2023-08-24T12:16:18;23.00;99.90
21090;DHT22;10703;51.020;6.128;2023-08-24T12:18:51;23.50;99.90
21090;DHT22;10703;51.020;6.128;2023-08-24T12:21:19;23.60;99.90
21090;DHT22;10703;51.020;6.128;2023-08-24T12:24:03;23.50;99.90
21090;DHT22;10703;51.020;6.128;2023-08-24T12:26:33;23.70;99.90
21090;DHT22;10703;51.020;6.128;2023-08-24T12:29:04;23.80;99.90
21090;DHT22;10703;51.020;6.128;2023-08-24T12:31:35;23.90;99.90
21090;DHT22;10703;51.020;6.128;2023-08-24T12:34:04;23.90;99.90
21090;DHT22;10703;51.020;6.128;2023-08-24T12:36:32;23.80;99.90
21090;DHT22;10703;51.020;6.128;2023-08-24T12:38:59;23.80;99.90
21090;DHT22;10703;51.020;6.128;2023-08-24T12:41:26;23.80;99.90
21090;DHT22;10703;51.020;6.128;2023-08-24T12:43:53;23.80;99.90
21090;DHT22;10703;51.020;6.128;2023-08-24T12:46:19;23.80;99.90
21090;DHT22;10703;51.020;6.128;2023-08-24T12:48:46;23.80;99.90
21090;DHT22;10703;51.020;6.128;2023-08-24T12:51:13;24.20;99.90
21090;DHT22;10703;51.020;6.128;2023-08-24T12:53:40;24.30;99.90
21090;DHT22;10703;51.020;6.128;2023-08-24T12:56:06;24.20;99.90
21090;DHT22;10703;51.020;6.128;2023-08-24T12:58:33;24.10;99.90
21090;DHT22;10703;51.020;6.128;2023-08-24T13:01:00;24.10;99.90
21090;DHT22;10703;51.020;6.128;2023-08-24T13:03:27;24.00;99.90
21090;DHT22;10703;51.020;6.128;2023-08-24T13:05:54;24.10;99.90
21090;DHT22;10703;51.020;6.128;2023-08-24T13:08:30;24.10;99.90
21090;DHT22;10703;51.020;6.128;2023-08-24T13:10:57;24.10;99.90
21090;DHT22;10703;51.020;6.128;2023-08-24T13:13:23;24.20;99.90
21090;DHT22;10703;51.020;6.128;2023-08-24T13:15:50;24.00;99.90
21090;DHT22;10703;51.020;6.128;2023-08-24T13:18:20;23.90;99.90
21090;DHT22;10703;51.020;6.128;2023-08-24T13:20:46;24.10;99.90
21090;DHT22;10703;51.020;6.128;2023-08-24T13:23:13;24.30;99.90
21090;DHT22;10703;51.020;6.128;2023-08-24T13:25:40;24.10;99.90
21090;DHT22;10703;51.020;6.128;2023-08-24T13:28:07;24.30;99.90
21090;DHT22;10703;51.020;6.128;2023-08-24T13:30:34;23.80;99.90
21090;DHT22;10703;51.020;6.128;2023-08-24T13:33:00;23.80;99.90
21090;DHT22;10703;51.020;6.128;2023-08-24T13:35:27;23.60;99.90
21090;DHT22;10703;51.020;6.128;2023-08-24T13:37:54;23.60;99.90
21090;DHT22;10703;51.020;6.128;2023-08-24T13:40:21;23.60;99.90
21090;DHT22;10703;51.020;6.128;2023-08-24T13:42:47;23.30;99.90
21090;DHT22;10703;51.020;6.128;2023-08-24T13:45:14;23.40;99.90
21090;DHT22;10703;51.020;6.128;2023-08-24T13:47:42;23.00;99.90
21090;DHT22;10703;51.020;6.128;2023-08-24T13:50:09;23.00;99.90
21090;DHT22;10703;51.020;6.128;2023-08-24T13:52:35;22.90;99.90
21090;DHT22;10703;51.020;6.128;2023-08-24T13:55:02;22.80;99.90
21090;DHT22;10703;51.020;6.128;2023-08-24T13:57:38;22.70;99.90
21090;DHT22;10703;51.020;6.128;2023-08-24T14:00:06;22.60;99.90
21090;DHT22;10703;51.020;6.128;2023-08-24T14:02:35;22.40;99.90
21090;DHT22;10703;51.020;6.128;2023-08-24T14:05:01;22.40;99.90
21090;DHT22;10703;51.020;6.128;2023-08-24T14:07:28;22.20;99.90
21090;DHT22;10703;51.020;6.128;2023-08-24T14:09:55;22.10;99.90
21090;DHT22;10703;51.020;6.128;2023-08-24T14:12:31;21.90;99.90
21090;DHT22;10703;51.020;6.128;2023-08-24T14:14:58;21.90;99.90
21090;DHT22;10703;51.020;6.128;2023-08-24T14:17:25;21.70;99.90
21090;DHT22;10703;51.020;6.128;2023-08-24T14:19:51;21.70;99.90
21090;DHT22;10703;51.020;6.128;2023-08-24T14:22:18;21.50;99.90
21090;DHT22;10703;51.020;6.128;2023-08-24T14:24:45;21.50;99.90
21090;DHT22;10703;51.020;6.128;2023-08-24T14:27:11;21.30;99.90
21090;DHT22;10703;51.020;6.128;2023-08-24T14:29:38;21.20;99.90
21090;DHT22;10703;51.020;6.128;2023-08-24T14:32:04;21.10;99.90
21090;DHT22;10703;51.020;6.128;2023-08-24T14:34:31;21.10;99.90
21090;DHT22;10703;51.020;6.128;2023-08-24T14:36:58;21.00;99.90
21090;DHT22;10703;51.020;6.128;2023-08-24T14:39:24;21.00;99.90
21090;DHT22;10703;51.020;6.128;2023-08-24T14:41:51;21.00;99.90
21090;DHT22;10703;51.020;6.128;2023-08-24T14:44:18;20.80;99.90
21090;DHT22;10703;51.020;6.128;2023-08-24T14:46:44;20.80;99.90
21090;DHT22;10703;51.020;6.128;2023-08-24T14:49:11;20.80;99.90
21090;DHT22;10703;51.020;6.128;2023-08-24T14:51:38;20.70;99.90
21090;DHT22;10703;51.020;6.128;2023-08-24T14:54:05;20.70;99.90
21090;DHT22;10703;51.020;6.128;2023-08-24T14:56:33;20.50;99.90
21090;DHT22;10703;51.020;6.128;2023-08-24T14:59:00;20.50;99.90
21090;DHT22;10703;51.020;6.128;2023-08-24T15:01:26;20.40;99.90
21090;DHT22;10703;51.020;6.128;2023-08-24T15:03:53;20.50;99.90
21090;DHT22;10703;51.020;6.128;2023-08-24T15:06:20;20.30;99.90
21090;DHT22;10703;51.020;6.128;2023-08-24T15:08:47;20.40;99.90
21090;DHT22;10703;51.020;6.128;2023-08-24T15:11:14;20.40;99.90
21090;DHT22;10703;51.020;6.128;2023-08-24T15:13:42;20.30;99.90
21090;DHT22;10703;51.020;6.128;2023-08-24T15:16:09;20.30;99.90
21090;DHT22;10703;51.020;6.128;2023-08-24T15:18:36;20.40;99.90
21090;DHT22;10703;51.020;6.128;2023-08-24T15:21:03;20.30;99.90
21090;DHT22;10703;51.020;6.128;2023-08-24T15:23:31;20.30;99.90
21090;DHT22;10703;51.020;6.128;2023-08-24T15:25:59;20.30;99.90
21090;DHT22;10703;51.020;6.128;2023-08-24T15:28:34;20.30;99.90
21090;DHT22;10703;51.020;6.128;2023-08-24T15:31:01;20.40;99.90
21090;DHT22;10703;51.020;6.128;2023-08-24T15:33:31;20.30;99.90
21090;DHT22;10703;51.020;6.128;2023-08-24T15:35:58;20.20;99.90
21090;DHT22;10703;51.020;6.128;2023-08-24T15:38:24;20.30;99.90
21090;DHT22;10703;51.020;6.128;2023-08-24T15:40:53;20.30;99.90
21090;DHT22;10703;51.020;6.128;2023-08-24T15:43:22;20.40;99.90